This is the latest recevied weather packets stored in our database for station/object YS1AHL-29. If no packets are shown the sender has not sent any weather packets the latest 10 day(s).
| Time | Temp. | Humidity | Pressure | Rain* | Wind** | Luminosity | Snow |
|---|---|---|---|---|---|---|---|
| 1777521508 | 13.33° C | 81% | 1022 hPa | 0 mm | - | - | - |
| 1777520967 | 13.33° C | 81% | 1022 hPa | 0 mm | - | - | - |
| 1777520907 | 13.33° C | 81% | 1022 hPa | 0 mm | - | - | - |
| 1777520367 | 13.89° C | 79% | 1022 hPa | 0 mm | - | - | - |
| 1777520307 | 13.89° C | 79% | 1022 hPa | 0 mm | - | - | - |
| 1777519766 | 14.44° C | 76% | 1021 hPa | 0 mm | - | - | - |
| 1777519706 | 14.44° C | 76% | 1021 hPa | 0 mm | - | - | - |
| 1777519166 | 15° C | 75% | 1021 hPa | 0 mm | - | - | - |
| 1777519106 | 15° C | 75% | 1021 hPa | 0 mm | - | - | - |
| 1777518565 | 15° C | 75% | 1021 hPa | 0 mm | - | - | - |
| 1777518505 | 15° C | 75% | 1021 hPa | 0 mm | - | - | - |
| 1777517965 | 15° C | 76% | 1021 hPa | 0 mm | - | - | - |
| 1777517905 | 15° C | 76% | 1021 hPa | 0 mm | - | - | - |
| 1777517364 | 15° C | 76% | 1021 hPa | 0 mm | - | - | - |
| 1777517304 | 15° C | 76% | 1021 hPa | 0 mm | - | - | - |
| 1777516763 | 15° C | 76% | 1021 hPa | 0 mm | - | - | - |
| 1777516703 | 15° C | 76% | 1021 hPa | 0 mm | - | - | - |
| 1777516163 | 16.67° C | 67% | 1022 hPa | 0 mm | - | - | - |
| 1777516103 | 16.67° C | 67% | 1022 hPa | 0 mm | - | - | - |
| 1777515562 | 17.22° C | 64% | 1022 hPa | 0 mm | - | - | - |
| 1777515502 | 17.22° C | 64% | 1022 hPa | 0 mm | - | - | - |
| 1777514962 | 17.22° C | 64% | 1022 hPa | 0 mm | - | - | - |
| 1777514902 | 17.22° C | 64% | 1022 hPa | 0 mm | - | - | - |
| 1777514361 | 17.78° C | 62% | 1022 hPa | 0 mm | - | - | - |
| 1777514301 | 17.78° C | 62% | 1022 hPa | 0 mm | - | - | - |
* Rain latest hour (hover to see other rain measurements)
** Current wind speed in m/s (hover to see current wind gust speed)